createdAt,value
2024-02-17T00:03:29.539Z,6.13
2024-02-17T00:08:44.178Z,6.28
2024-02-17T00:13:56.321Z,7.45
2024-02-17T00:19:07.520Z,5.93
2024-02-17T00:24:17.265Z,7.18
2024-02-17T00:29:27.089Z,6.53
2024-02-17T00:34:34.559Z,6.50
2024-02-17T00:39:43.336Z,6.82
2024-02-17T00:44:52.147Z,7.63
2024-02-17T00:50:00.317Z,6.65
2024-02-17T00:55:10.384Z,6.45
2024-02-17T01:00:17.371Z,7.00
2024-02-17T01:05:28.545Z,6.30
2024-02-17T01:10:40.455Z,6.07
2024-02-17T01:15:50.480Z,6.28
2024-02-17T01:20:56.414Z,7.72
2024-02-17T01:25:59.721Z,7.07
2024-02-17T01:31:05.866Z,7.63
2024-02-17T01:36:14.234Z,6.32
2024-02-17T01:41:26.372Z,6.70
2024-02-17T01:46:29.663Z,6.47
2024-02-17T01:51:32.728Z,7.15
2024-02-17T01:56:40.488Z,6.25
2024-02-17T02:01:42.882Z,6.13
2024-02-17T02:06:49.968Z,7.47
2024-02-17T02:11:54.279Z,7.22
2024-02-17T02:17:02.786Z,7.03
2024-02-17T02:22:13.866Z,6.93
2024-02-17T02:27:19.638Z,7.47
2024-02-17T02:32:23.998Z,7.38
2024-02-17T02:37:33.084Z,6.95
2024-02-17T02:42:44.176Z,7.90
2024-02-17T02:47:50.298Z,5.90
2024-02-17T02:52:56.827Z,6.15
2024-02-17T02:58:04.533Z,6.22
2024-02-17T03:03:14.168Z,7.45
2024-02-17T03:08:20.999Z,6.30
2024-02-17T03:13:20.849Z,6.53
2024-02-17T03:18:24.817Z,7.03
2024-02-17T03:23:26.590Z,7.45
2024-02-17T03:28:30.260Z,7.57
2024-02-17T03:33:38.669Z,7.25
2024-02-17T03:38:41.042Z,6.78
2024-02-17T03:43:42.170Z,8.25
2024-02-17T03:48:43.336Z,7.32
2024-02-17T03:53:53.321Z,7.25
2024-02-17T03:58:53.718Z,6.80
2024-02-17T04:03:58.299Z,7.70
2024-02-17T04:09:05.693Z,7.50
2024-02-17T04:14:07.220Z,6.90
2024-02-17T04:19:08.709Z,7.22
2024-02-17T04:24:11.864Z,7.25
2024-02-17T04:29:19.770Z,7.05
2024-02-17T04:34:22.002Z,6.70
2024-02-17T04:39:30.025Z,6.65
2024-02-17T04:44:31.686Z,6.20
2024-02-17T04:49:41.001Z,6.63
2024-02-17T04:54:54.802Z,6.95
2024-02-17T04:59:53.501Z,6.57
2024-02-17T05:04:51.346Z,6.55
2024-02-17T05:09:48.999Z,6.30
2024-02-17T05:14:47.364Z,6.10
2024-02-17T05:19:45.289Z,6.00
2024-02-17T05:24:46.646Z,6.10
2024-02-17T05:29:45.675Z,7.05
2024-02-17T05:34:44.192Z,6.80
2024-02-17T05:39:42.710Z,7.05
2024-02-17T05:44:40.843Z,6.00
2024-02-17T05:49:39.965Z,7.32
2024-02-17T05:54:38.416Z,6.57
2024-02-17T05:59:37.075Z,6.30
2024-02-17T06:04:34.838Z,6.22
2024-02-17T06:09:34.721Z,7.55
2024-02-17T06:14:33.376Z,5.70
2024-02-17T06:19:50.033Z,6.10
2024-02-17T06:24:49.401Z,6.18
2024-02-17T06:29:47.539Z,6.22
2024-02-17T06:34:48.230Z,6.43
2024-02-17T06:39:46.276Z,6.13
2024-02-17T06:44:44.683Z,5.57
2024-02-17T06:49:42.544Z,6.63
2024-02-17T06:54:42.601Z,6.03
2024-02-17T06:59:40.729Z,6.07
2024-02-17T07:09:41.001Z,6.40
2024-02-17T07:14:46.884Z,5.75
2024-02-17T07:19:44.267Z,5.70
2024-02-17T07:24:44.175Z,6.65
2024-02-17T07:29:44.668Z,7.72
2024-02-17T07:34:44.692Z,5.40
2024-02-17T07:39:42.264Z,5.93
2024-02-17T07:44:43.401Z,5.95
2024-02-17T07:49:40.863Z,5.15
2024-02-17T07:54:38.311Z,5.15
2024-02-17T07:59:35.914Z,5.75
2024-02-17T08:04:33.737Z,5.68
2024-02-17T08:09:32.481Z,4.32
2024-02-17T08:14:30.850Z,5.93
2024-02-17T08:19:28.496Z,5.80
2024-02-17T08:24:26.037Z,5.63
2024-02-17T08:29:23.831Z,6.18
2024-02-17T08:34:21.441Z,5.47
2024-02-17T08:39:19.700Z,6.30
2024-02-17T08:44:18.699Z,6.22
2024-02-17T08:49:16.049Z,5.45
2024-02-17T08:54:17.735Z,5.15
2024-02-17T08:59:15.317Z,5.18
2024-02-17T09:04:12.999Z,6.38
2024-02-17T09:09:10.640Z,5.70
2024-02-17T09:14:08.356Z,4.90
2024-02-17T09:19:05.746Z,5.38
2024-02-17T09:24:03.066Z,5.38
2024-02-17T09:29:00.576Z,5.32
2024-02-17T09:33:58.208Z,5.95
2024-02-17T09:38:56.008Z,6.00
2024-02-17T09:43:53.657Z,5.35
2024-02-17T09:48:51.198Z,4.90
2024-02-17T09:53:48.595Z,4.72
2024-02-17T09:58:46.142Z,4.82
2024-02-17T10:03:43.444Z,5.15
2024-02-17T10:08:41.124Z,4.60
2024-02-17T10:13:40.058Z,3.53
2024-02-17T10:18:47.010Z,3.25
2024-02-17T10:23:44.543Z,3.65
2024-02-17T10:28:41.973Z,3.63
2024-02-17T10:33:39.762Z,3.75
2024-02-17T10:38:37.739Z,3.72
2024-02-17T10:43:39.600Z,3.35
2024-02-17T10:48:41.225Z,3.17
2024-02-17T10:53:48.711Z,3.33
2024-02-17T10:58:47.613Z,3.78
2024-02-17T11:03:46.556Z,4.35
2024-02-17T11:08:45.310Z,4.17
2024-02-17T11:13:42.703Z,3.40
2024-02-17T11:18:43.139Z,3.35
2024-02-17T11:23:42.757Z,3.13
2024-02-17T11:28:40.221Z,3.05
2024-02-17T11:33:39.282Z,2.90
2024-02-17T11:38:38.299Z,2.75
2024-02-17T11:43:36.983Z,2.90
2024-02-17T11:48:34.969Z,3.28
2024-02-17T11:53:33.720Z,3.65
2024-02-17T11:58:31.626Z,2.70
2024-02-17T12:03:30.072Z,2.88
2024-02-17T12:08:28.896Z,2.33
2024-02-17T12:13:28.138Z,3.40
2024-02-17T12:18:26.534Z,3.63
2024-02-17T12:23:24.092Z,5.05
2024-02-17T12:28:22.888Z,3.50
2024-02-17T12:33:23.135Z,3.67
2024-02-17T12:38:24.938Z,3.25
2024-02-17T12:43:29.486Z,2.67
2024-02-17T12:48:31.890Z,3.47
2024-02-17T12:53:29.341Z,2.80
2024-02-17T12:58:26.821Z,3.42
2024-02-17T13:03:26.084Z,2.63
2024-02-17T13:08:24.071Z,2.67
2024-02-17T13:13:21.669Z,3.65
2024-02-17T13:18:19.386Z,3.10
2024-02-17T13:23:17.580Z,2.90
2024-02-17T13:28:14.823Z,3.20
2024-02-17T13:33:12.234Z,3.17
2024-02-17T13:38:18.094Z,3.22
2024-02-17T13:43:23.273Z,2.95
2024-02-17T13:48:22.157Z,3.45
2024-02-17T13:53:19.877Z,4.40
2024-02-17T13:58:17.173Z,3.47
2024-02-17T14:03:15.065Z,2.78
2024-02-17T14:08:13.079Z,3.75
2024-02-17T14:13:10.985Z,2.47
2024-02-17T14:18:10.452Z,2.60
2024-02-17T14:23:07.964Z,2.25
2024-02-17T14:28:05.948Z,3.05
2024-02-17T14:33:04.648Z,3.38
2024-02-17T14:38:02.103Z,3.35
2024-02-17T14:42:59.606Z,3.38
2024-02-17T14:47:57.510Z,3.35
2024-02-17T14:52:58.104Z,2.63
2024-02-17T14:57:55.754Z,3.22
2024-02-17T15:02:54.014Z,4.47
2024-02-17T15:07:51.383Z,2.88
2024-02-17T15:12:50.272Z,2.95
2024-02-17T15:17:48.221Z,3.08
2024-02-17T15:22:45.764Z,3.47
2024-02-17T15:27:43.354Z,3.17
2024-02-17T15:32:40.651Z,2.90
2024-02-17T15:37:38.227Z,3.47
2024-02-17T15:42:38.292Z,3.28
2024-02-17T15:47:36.613Z,3.33
2024-02-17T15:52:34.148Z,3.50
2024-02-17T15:57:35.460Z,3.47
2024-02-17T16:02:32.686Z,2.88
2024-02-17T16:07:31.684Z,3.85
2024-02-17T16:12:29.073Z,5.07
2024-02-17T16:17:26.465Z,4.25
2024-02-17T16:22:23.833Z,4.10
2024-02-17T16:27:21.183Z,5.30
2024-02-17T16:32:19.393Z,4.57
2024-02-17T16:37:16.849Z,4.70
2024-02-17T16:42:14.228Z,4.85
2024-02-17T16:47:13.479Z,5.53
2024-02-17T16:52:11.206Z,5.27
2024-02-17T16:57:08.908Z,6.45
2024-02-17T17:02:06.634Z,6.25
2024-02-17T17:07:13.803Z,7.15
2024-02-17T17:12:11.932Z,5.55
2024-02-17T17:17:09.613Z,6.22
2024-02-17T17:22:08.414Z,5.40
2024-02-17T17:27:06.230Z,7.40
2024-02-17T17:32:04.367Z,6.75
2024-02-17T17:37:03.182Z,7.05
2024-02-17T17:42:00.705Z,6.32
2024-02-17T17:46:58.072Z,9.48
2024-02-17T17:51:55.775Z,6.18
2024-02-17T17:56:53.488Z,5.22
2024-02-17T18:01:50.789Z,6.97
2024-02-17T18:06:48.226Z,6.10
2024-02-17T18:11:45.636Z,7.03
2024-02-17T18:16:43.231Z,7.00
2024-02-17T18:21:41.262Z,5.80
2024-02-17T18:26:38.816Z,9.77
2024-02-17T18:31:37.820Z,7.25
2024-02-17T18:36:35.256Z,7.32
2024-02-17T18:41:33.109Z,6.25
2024-02-17T18:46:30.400Z,6.53
2024-02-17T18:51:28.208Z,6.03
2024-02-17T18:56:27.724Z,5.93
2024-02-17T19:01:25.445Z,6.37
2024-02-17T19:06:23.158Z,6.18
2024-02-17T19:11:20.948Z,7.20
2024-02-17T19:16:18.982Z,7.43
2024-02-17T19:21:16.960Z,7.97
2024-02-17T19:26:14.929Z,6.60
2024-02-17T19:31:12.656Z,6.68
2024-02-17T19:36:11.125Z,7.93
2024-02-17T19:41:10.903Z,7.80
2024-02-17T19:51:08.369Z,7.97
2024-02-17T19:56:07.399Z,8.93
2024-02-17T20:01:05.670Z,10.73
2024-02-17T20:06:03.364Z,8.90
2024-02-17T20:11:02.209Z,7.55
2024-02-17T20:16:00.404Z,8.68
2024-02-17T20:20:58.243Z,7.97
2024-02-17T20:25:55.911Z,9.18
2024-02-17T20:30:53.505Z,7.05
2024-02-17T20:35:51.427Z,7.10
2024-02-17T20:40:48.800Z,6.95
2024-02-17T20:45:48.234Z,6.57
2024-02-17T20:50:45.645Z,6.03
2024-02-17T20:55:43.056Z,7.00
2024-02-17T21:00:42.010Z,6.53
2024-02-17T21:05:40.255Z,7.53
2024-02-17T21:10:37.669Z,7.10
2024-02-17T21:15:35.181Z,7.38
2024-02-17T21:20:32.685Z,7.15
2024-02-17T21:25:30.052Z,7.50
2024-02-17T21:30:27.455Z,7.70
2024-02-17T21:35:24.790Z,7.47
2024-02-17T21:40:24.145Z,6.43
2024-02-17T21:45:23.058Z,6.65
2024-02-17T21:50:20.433Z,6.97
2024-02-17T21:55:18.037Z,7.18
2024-02-17T22:00:15.644Z,6.93
2024-02-17T22:05:12.993Z,7.93
2024-02-17T22:10:10.785Z,6.78
2024-02-17T22:15:09.183Z,7.82
2024-02-17T22:20:07.775Z,6.70
2024-02-17T22:25:05.609Z,7.82
2024-02-17T22:30:03.692Z,7.75
2024-02-17T22:35:01.127Z,7.45
2024-02-17T22:39:58.692Z,7.60
2024-02-17T22:44:56.213Z,7.72
2024-02-17T22:49:54.054Z,7.20
2024-02-17T22:54:51.733Z,7.82
2024-02-17T22:59:49.237Z,7.75
2024-02-17T23:04:46.627Z,6.88
2024-02-17T23:09:44.062Z,6.97
2024-02-17T23:14:41.789Z,7.57
2024-02-17T23:19:39.504Z,7.32
2024-02-17T23:24:37.227Z,7.82
2024-02-17T23:29:34.552Z,6.85
2024-02-17T23:34:32.182Z,7.25
2024-02-17T23:39:30.582Z,8.07
2024-02-17T23:44:28.357Z,7.10
2024-02-17T23:49:25.884Z,7.82
2024-02-17T23:54:23.334Z,7.70
2024-02-17T23:59:20.826Z,6.43
